EST,Max TemperatureF,Mean TemperatureF,Min TemperatureF,Max Dew PointF,MeanDew PointF,Min DewpointF,Max Humidity, Mean Humidity, Min Humidity, Max Sea Level PressureIn, Mean Sea Level PressureIn, Min Sea Level PressureIn, Max VisibilityMiles, Mean VisibilityMiles, Min VisibilityMiles, Max Wind SpeedMPH, Mean Wind SpeedMPH, Max Gust SpeedMPH,PrecipitationIn, CloudCover, Events, WindDirDegrees
2013-1-1,30,24,17,27,19,12,93,79,63,30.02,29.97,29.93,10,9,2,15,8,21,0.00,8,,287
2013-1-2,19,16,14,12,11,9,86,73,68,30.17,30.09,30.01,10,10,3,10,6,16,0.00,7,,257
2013-1-3,26,16,6,19,13,1,93,78,59,30.14,30.10,30.04,10,10,6,18,6,25,0.00,6,,230
2013-1-4,28,26,24,19,17,14,80,69,59,30.16,30.10,30.03,10,10,3,21,14,30,0.00,5,,245
2013-1-5,30,27,24,21,19,16,86,75,64,30.32,30.21,30.09,10,10,7,15,9,21,0.00,7,,215
2013-1-6,33,32,30,30,26,21,93,80,64,30.15,30.02,29.92,10,7,1,14,9,23,0.02,8,,234
2013-1-7,30,26,21,28,23,18,93,83,69,30.40,30.30,30.16,10,8,2,13,8,16,0.01,6,,231
2013-1-8,39,28,17,25,20,12,100,75,45,30.32,30.27,30.22,10,8,4,14,8,,0.00,0,,197
2013-1-9,44,35,26,36,28,21,87,72,56,30.43,30.24,30.14,10,10,10,18,8,28,0.03,2,,218
2013-1-10,39,32,24,27,25,21,100,73,56,30.59,30.47,30.31,10,9,2,15,5,20,0.00,0,,130
2013-1-11,44,40,37,43,34,23,100,78,56,30.30,30.07,29.92,10,6,0,16,12,23,0.37,8,,152
2013-1-12,55,48,42,52,48,43,100,93,82,30.07,30.03,29.97,10,5,0,14,8,18,0.00,6,,183
2013-1-13,64,58,51,55,53,50,94,83,68,29.96,29.88,29.83,10,10,5,18,10,28,0.06,5,,193
2013-1-14,55,40,24,54,24,18,94,76,64,30.36,30.23,29.90,10,10,2,25,10,34,0.02,7,,300
2013-1-15,32,28,24,21,18,16,86,68,55,30.35,30.26,30.07,10,10,10,8,2,,0.00,4,,360
2013-1-16,33,30,28,30,26,18,93,84,64,30.06,29.92,29.83,10,9,2,0,0,,0.00,6,,-1
2013-1-17,33,28,23,25,23,18,86,74,60,30.12,30.06,29.94,10,10,1,31,3,91,0.00,8,,279
2013-1-18,28,22,15,18,11,1,86,63,51,30.42,30.29,30.13,10,10,2,20,11,26,0.00,5,,247
2013-1-19,48,39,30,25,20,14,55,45,34,30.13,29.98,29.74,10,10,10,24,15,31,0.00,1,,208
2013-1-20,44,32,19,28,15,7,74,59,43,30.09,29.92,29.67,10,10,3,30,17,39,0.00,7,,258
2013-1-21,21,14,8,12,7,1,79,67,58,30.04,29.94,29.85,10,8,1,16,10,24,0.00,6,,249
2013-1-22,8,6,3,1,-2,-8,85,70,48,30.16,30.08,29.93,10,7,0,21,13,32,0.00,6,,256
2013-1-23,12,6,1,7,0,-6,92,73,53,30.17,30.11,30.00,10,9,4,14,9,18,0.00,6,,230
2013-1-24,17,10,3,9,2,-4,100,72,38,30.47,30.28,29.98,10,9,2,14,5,22,0.00,4,,280
2013-1-25,14,10,5,10,6,1,92,83,67,30.43,30.15,29.97,10,8,0,12,4,,0.00,6,,132
2013-1-26,24,19,14,19,15,9,93,84,69,30.38,30.17,30.01,10,6,1,10,6,,0.00,8,,256
2013-1-27,28,20,12,19,14,9,93,75,59,30.49,30.40,30.29,10,8,1,9,5,,0.00,4,,167
2013-1-28,44,35,26,45,35,19,100,94,74,30.28,30.06,29.95,10,2,0,16,10,23,0.27,8,,196
2013-1-29,55,50,44,52,48,43,100,95,77,30.03,29.94,29.78,10,4,0,16,8,23,0.15,7,,193
2013-1-30,60,54,48,54,50,45,94,82,63,29.77,29.45,29.18,10,10,9,24,17,34,0.44,5,,181
2013-1-31,48,32,17,45,18,9,93,74,58,29.78,29.56,29.19,10,6,0,32,18,41,0.17,8,,256